Bays, Kentucky
Current Conditions -  °F | °C
As of 3:53 PM on Saturday 22 Nov 2014 (Local Time) from KJKL Reporting Station
Clear Clear  
Wind Chill: 59°   Ceiling: Unl
Heat Index: 59°   Visibility: 10mi
Dew Point: 23°   Wind: 6mph
Humidity: 25%   Direction: 200°SSW
Pressure: 30.21"   Gusts: NA
Location:  37.63°N, 83.24°W
Report Text: KJKL 222053Z AUTO 20005KT 10SM CLR 15/M05 A3021 RMK AO2 SLP231 T01501050 56024
Loading
Personal Weather Stations






























Interactive Weather Map New forecast layout! Learn more

10-Day Weather Forecast

Advertisements
Track Severe Weather on mobile